Terminal Aerodrome Forecast
Issued by NWS Corpus Christi, TX

Current Version | Previous Version | Text Only | Print | Product List | Glossary Off
Versions: 1 2 3 4 5 6 7 8 9 10 11 12 13 14 15 16 17

000
FTUS44 KCRP 252321
TAFVCT
TAF
KVCT 252321Z 2600/2624 12007KT P6SM FEW030 SCT200
     FM260900 09005KT 5SM BR BKN012
     FM261500 12010KT P6SM VCSH SCT030 OVC150
      TEMPO 2620/2624 5SM TSRA BR OVC030CB=

USA.gov is the U.S. government's official web portal to all federal, state and local government web resources and services.